Time;durP1;ratioP1;P1;durP2;ratioP2;P2;SDS_P1;SDS_P2;PMS_P1;PMS_P2;Temp;Humidity;BMP_temperature;BMP_pressure;BME280_temperature;BME280_humidity;BME280_pressure;Samples;Min_cycle;Max_cycle;Signal;HPM_P1;HPM_P2
2021/08/13 00:00:19;;;;;;;9.50;7.57;;;29.20;53.00;;;;;;5104706;28;20471;-77
2021/08/13 00:02:46;;;;;;;7.60;6.80;;;29.20;52.90;;;;;;5105532;28;20508;-78
2021/08/13 00:05:15;;;;;;;7.97;7.27;;;29.20;52.90;;;;;;5090834;28;20448;-77
2021/08/13 00:07:43;;;;;;;10.13;7.47;;;29.20;53.00;;;;;;5084424;28;20467;-78
2021/08/13 00:10:12;;;;;;;7.70;6.90;;;29.20;53.00;;;;;;5084011;28;20535;-78
2021/08/13 00:12:40;;;;;;;7.50;6.90;;;29.20;53.10;;;;;;5083503;28;20684;-78
2021/08/13 00:15:09;;;;;;;8.17;7.37;;;29.20;53.20;;;;;;5083427;28;20535;-78
2021/08/13 00:17:37;;;;;;;7.77;6.97;;;29.20;53.10;;;;;;5083172;28;20433;-78
2021/08/13 00:20:06;;;;;;;9.30;7.50;;;29.10;53.10;;;;;;5083515;28;20482;-78
2021/08/13 00:22:34;;;;;;;7.90;7.10;;;29.10;53.20;;;;;;5083366;28;20468;-78
2021/08/13 00:25:02;;;;;;;7.27;6.67;;;29.10;53.20;;;;;;5083487;28;20482;-78
2021/08/13 00:27:31;;;;;;;7.80;7.13;;;29.10;53.30;;;;;;5083693;28;20549;-79
2021/08/13 00:29:59;;;;;;;7.70;6.90;;;29.10;53.20;;;;;;5084282;28;20509;-78
2021/08/13 00:32:27;;;;;;;7.90;7.00;;;29.10;53.30;;;;;;5085228;28;20536;-79
2021/08/13 00:34:54;;;;;;;10.87;7.20;;;29.00;53.30;;;;;;5083026;28;20451;-78
2021/08/13 00:37:22;;;;;;;7.30;6.70;;;29.00;53.50;;;;;;5065149;28;20447;-77
2021/08/13 00:39:50;;;;;;;8.30;6.93;;;29.00;53.40;;;;;;5064331;28;20493;-78
2021/08/13 00:42:18;;;;;;;8.07;7.23;;;29.00;53.40;;;;;;5063111;28;20444;-78
2021/08/13 00:44:47;;;;;;;8.47;7.57;;;29.00;53.40;;;;;;5063624;28;20438;-78
2021/08/13 00:47:15;;;;;;;7.17;6.57;;;29.00;53.50;;;;;;5063011;28;20503;-77
2021/08/13 00:49:42;;;;;;;8.07;7.27;;;29.00;53.50;;;;;;5062567;28;20489;-77
2021/08/13 00:52:10;;;;;;;8.33;6.87;;;28.90;53.40;;;;;;5062954;28;20528;-78
2021/08/13 00:54:38;;;;;;;7.07;6.47;;;28.90;53.50;;;;;;5063678;28;20499;-78
2021/08/13 00:57:06;;;;;;;7.23;6.53;;;28.90;53.60;;;;;;5065463;28;20441;-78
2021/08/13 00:59:34;;;;;;;7.40;6.70;;;28.90;53.60;;;;;;5064915;28;20524;-78
2021/08/13 01:02:03;;;;;;;7.33;6.63;;;28.90;53.70;;;;;;5065176;28;20988;-78
2021/08/13 01:04:31;;;;;;;7.97;7.27;;;28.90;53.70;;;;;;5065140;28;20495;-77
2021/08/13 01:06:59;;;;;;;8.03;7.03;;;28.90;53.60;;;;;;5068691;28;20477;-78
2021/08/13 01:09:27;;;;;;;7.00;6.43;;;28.90;53.60;;;;;;5065250;28;20449;-77
2021/08/13 01:11:59;;;;;;;9.37;6.87;;;28.90;53.80;;;;;;5065281;28;20421;-77
2021/08/13 01:14:32;;;;;;;7.13;6.53;;;28.80;53.70;;;;;;5065828;28;20465;-77
2021/08/13 01:17:05;;;;;;;7.70;7.00;;;28.80;53.80;;;;;;5065334;28;20453;-77
2021/08/13 01:19:48;;;;;;;7.13;6.53;;;28.80;53.80;;;;;;5065002;28;20515;-78
2021/08/13 01:22:18;;;;;;;7.30;6.53;;;28.90;53.90;;;;;;5064637;28;20508;-79
2021/08/13 01:24:47;;;;;;;7.20;6.50;;;28.80;53.90;;;;;;5064552;28;20537;-79
2021/08/13 01:27:17;;;;;;;7.47;6.77;;;28.80;53.90;;;;;;5064671;28;20464;-80
2021/08/13 01:29:46;;;;;;;8.97;7.33;;;28.80;53.90;;;;;;5064184;28;20460;-77
2021/08/13 01:32:37;;;;;;;7.67;6.87;;;28.70;53.80;;;;;;5064490;28;20431;-80
2021/08/13 01:35:07;;;;;;;7.83;7.13;;;28.80;53.90;;;;;;5064598;28;20434;-78
2021/08/13 01:37:37;;;;;;;8.30;7.50;;;28.70;53.90;;;;;;5075277;28;20452;-78
2021/08/13 01:40:05;;;;;;;7.23;6.63;;;28.70;53.90;;;;;;5085527;28;20532;-79
2021/08/13 01:42:34;;;;;;;7.70;7.03;;;28.70;54.10;;;;;;5090213;28;20516;-78
2021/08/13 01:45:03;;;;;;;7.93;7.13;;;28.70;54.10;;;;;;5093051;28;20472;-80
2021/08/13 01:47:30;;;;;;;7.13;6.50;;;28.70;53.90;;;;;;5091558;28;20443;-81
2021/08/13 01:49:59;;;;;;;7.63;6.90;;;28.70;54.00;;;;;;5097346;28;20963;-80
2021/08/13 01:52:27;;;;;;;7.50;6.73;;;28.70;54.00;;;;;;5077413;28;20434;-79
2021/08/13 01:54:55;;;;;;;7.07;6.47;;;28.70;53.90;;;;;;5085849;28;20544;-79
2021/08/13 01:57:23;;;;;;;6.83;6.23;;;28.60;53.90;;;;;;5091122;28;20433;-80
2021/08/13 01:59:51;;;;;;;7.87;7.00;;;28.60;53.90;;;;;;5083311;28;20473;-80
2021/08/13 02:02:19;;;;;;;7.80;7.10;;;28.70;54.00;;;;;;5083977;28;20514;-80
2021/08/13 02:04:48;;;;;;;7.33;6.73;;;28.70;53.90;;;;;;5084003;28;20444;-80
2021/08/13 02:07:17;;;;;;;7.47;6.70;;;28.60;53.90;;;;;;5082878;28;20708;-79
2021/08/13 02:09:45;;;;;;;8.53;7.63;;;28.60;53.90;;;;;;5083394;28;20568;-79
2021/08/13 02:12:13;;;;;;;7.47;6.77;;;28.60;53.90;;;;;;5084108;28;20511;-79
2021/08/13 02:14:41;;;;;;;8.43;6.87;;;28.60;53.90;;;;;;5083862;28;20495;-79
2021/08/13 02:17:19;;;;;;;8.10;7.27;;;28.60;53.90;;;;;;5083896;28;20450;-79
2021/08/13 02:19:51;;;;;;;7.70;6.90;;;28.60;54.20;;;;;;5082733;28;20543;-79
2021/08/13 02:22:21;;;;;;;8.13;7.10;;;28.50;54.10;;;;;;5076917;28;20540;-79
2021/08/13 02:24:48;;;;;;;7.63;6.60;;;28.60;54.00;;;;;;5082192;28;20520;-79
2021/08/13 02:27:16;;;;;;;7.70;6.73;;;28.50;54.10;;;;;;5091820;28;20943;-80
2021/08/13 02:29:44;;;;;;;8.00;7.20;;;28.50;54.00;;;;;;5083698;28;20461;-76
2021/08/13 02:32:12;;;;;;;7.53;6.77;;;28.60;54.00;;;;;;5083834;28;20517;-76
2021/08/13 02:34:40;;;;;;;8.57;7.27;;;28.50;54.10;;;;;;5084681;28;20532;-76
2021/08/13 02:37:11;;;;;;;6.37;5.87;;;28.50;54.00;;;;;;5083926;28;20528;-78
2021/08/13 02:39:44;;;;;;;8.07;7.17;;;28.50;54.00;;;;;;5068826;28;20465;-78
2021/08/13 02:42:13;;;;;;;7.40;6.80;;;28.50;54.10;;;;;;5063702;28;20565;-76
2021/08/13 02:44:40;;;;;;;10.10;6.90;;;28.40;54.00;;;;;;5064049;28;20797;-77
2021/08/13 02:47:09;;;;;;;7.30;6.67;;;28.50;54.10;;;;;;5064949;28;20473;-76
2021/08/13 02:49:37;;;;;;;7.87;7.10;;;28.40;54.10;;;;;;5064858;28;20544;-77
2021/08/13 02:52:06;;;;;;;8.80;6.83;;;28.50;54.10;;;;;;5065066;28;20505;-78
2021/08/13 02:54:34;;;;;;;7.90;7.10;;;28.40;54.00;;;;;;5064399;28;20725;-77
2021/08/13 02:57:04;;;;;;;7.20;6.47;;;28.40;54.00;;;;;;5064835;28;20525;-77
2021/08/13 02:59:32;;;;;;;7.17;6.57;;;28.50;54.10;;;;;;5063967;28;20781;-76
2021/08/13 03:02:01;;;;;;;10.70;6.93;;;28.40;54.00;;;;;;5064190;28;20569;-78
2021/08/13 03:04:30;;;;;;;6.83;6.33;;;28.40;54.00;;;;;;5064875;28;20426;-78
2021/08/13 03:06:58;;;;;;;8.23;7.43;;;28.40;54.00;;;;;;5066633;28;20540;-75
2021/08/13 03:09:26;;;;;;;7.40;6.70;;;28.40;53.90;;;;;;5069586;28;20971;-78
2021/08/13 03:11:54;;;;;;;7.90;7.20;;;28.40;54.00;;;;;;5066373;28;20458;-77
2021/08/13 03:14:23;;;;;;;8.10;7.40;;;28.40;54.00;;;;;;5066115;28;20525;-76
2021/08/13 03:16:51;;;;;;;8.43;7.50;;;28.40;54.00;;;;;;5065872;28;20440;-77
2021/08/13 03:19:19;;;;;;;8.40;7.60;;;28.40;53.90;;;;;;5064676;28;20560;-76
2021/08/13 03:21:47;;;;;;;7.70;6.90;;;28.40;54.00;;;;;;5063766;28;21018;-76
2021/08/13 03:24:15;;;;;;;7.80;7.10;;;28.40;54.00;;;;;;5064929;28;20525;-77
2021/08/13 03:26:43;;;;;;;7.53;6.83;;;28.40;53.90;;;;;;5064969;28;21029;-75
2021/08/13 03:29:11;;;;;;;9.50;6.73;;;28.30;54.00;;;;;;5061966;28;20458;-79
2021/08/13 03:31:43;;;;;;;7.43;6.83;;;28.30;54.60;;;;;;5063601;28;20438;-77
2021/08/13 03:34:11;;;;;;;7.70;6.87;;;28.30;54.00;;;;;;5062132;28;20484;-78
2021/08/13 03:36:39;;;;;;;7.67;6.97;;;28.30;54.00;;;;;;5062063;28;20481;-77
2021/08/13 03:39:07;;;;;;;7.87;7.10;;;28.30;53.90;;;;;;5064961;28;20472;-78
2021/08/13 03:41:35;;;;;;;7.13;6.53;;;28.30;53.80;;;;;;5062167;28;20533;-76
2021/08/13 03:44:02;;;;;;;8.03;7.33;;;28.40;53.90;;;;;;5062843;28;20441;-78
2021/08/13 03:46:30;;;;;;;9.97;6.80;;;28.40;53.70;;;;;;5062930;28;20480;-77
2021/08/13 03:49:00;;;;;;;7.30;6.60;;;28.40;53.70;;;;;;5062277;28;20619;-78
2021/08/13 03:51:27;;;;;;;7.70;7.00;;;28.30;53.70;;;;;;5061653;28;20525;-80
2021/08/13 03:53:55;;;;;;;7.80;7.10;;;28.30;53.70;;;;;;5065218;28;20451;-79
2021/08/13 03:56:23;;;;;;;7.97;7.27;;;28.40;53.70;;;;;;5061441;28;20419;-79
2021/08/13 03:58:51;;;;;;;8.03;7.33;;;28.30;53.60;;;;;;5061160;28;20484;-80
2021/08/13 04:01:18;;;;;;;9.73;7.47;;;28.30;53.60;;;;;;5064618;28;20548;-78
2021/08/13 04:03:46;;;;;;;8.03;7.23;;;28.30;53.70;;;;;;5080233;28;20470;-79
2021/08/13 04:06:16;;;;;;;7.80;7.10;;;28.30;53.80;;;;;;5085214;28;20470;-80
2021/08/13 04:08:44;;;;;;;7.60;6.90;;;28.30;53.70;;;;;;5097224;28;20462;-80
2021/08/13 04:11:12;;;;;;;8.20;7.40;;;28.30;53.60;;;;;;5086197;28;20529;-80
2021/08/13 04:13:40;;;;;;;7.20;6.60;;;28.30;53.70;;;;;;5060253;28;20439;-78
2021/08/13 04:16:07;;;;;;;7.53;6.83;;;28.30;53.70;;;;;;5061108;28;20434;-80
2021/08/13 04:18:35;;;;;;;7.40;6.80;;;28.30;53.70;;;;;;5061066;28;20557;-79
2021/08/13 04:21:03;;;;;;;7.50;6.80;;;28.30;53.80;;;;;;5061142;28;20515;-78
2021/08/13 04:23:32;;;;;;;7.87;7.17;;;28.30;53.60;;;;;;5061679;28;20481;-80
2021/08/13 04:26:00;;;;;;;8.07;7.37;;;28.20;53.60;;;;;;5061969;28;20619;-79
2021/08/13 04:28:28;;;;;;;8.13;7.43;;;28.20;53.80;;;;;;5060839;28;20501;-79
2021/08/13 04:30:56;;;;;;;8.53;7.70;;;28.30;53.70;;;;;;5076521;28;20429;-78
2021/08/13 04:33:24;;;;;;;7.67;7.00;;;28.30;53.60;;;;;;5086575;28;20419;-77
2021/08/13 04:35:51;;;;;;;7.70;7.00;;;28.30;53.70;;;;;;5086057;28;20422;-78
2021/08/13 04:38:19;;;;;;;9.33;7.60;;;28.20;53.50;;;;;;5085527;28;20517;-78
2021/08/13 04:40:48;;;;;;;8.20;7.47;;;28.30;53.70;;;;;;5086231;28;20445;-77
2021/08/13 04:43:16;;;;;;;7.93;7.20;;;28.30;53.60;;;;;;5085468;28;20513;-79
2021/08/13 04:45:44;;;;;;;7.37;6.67;;;28.30;53.50;;;;;;5080262;28;20441;-77
2021/08/13 04:48:11;;;;;;;9.03;7.03;;;28.20;53.60;;;;;;5085604;28;20457;-77
2021/08/13 04:50:39;;;;;;;7.63;6.93;;;28.30;53.60;;;;;;5085657;28;20871;-79
2021/08/13 04:53:07;;;;;;;8.23;7.30;;;28.30;53.60;;;;;;5085484;28;20406;-78
2021/08/13 04:55:35;;;;;;;11.10;7.77;;;28.30;53.40;;;;;;5085315;28;20435;-78
2021/08/13 04:58:04;;;;;;;7.90;7.20;;;28.30;53.40;;;;;;5088860;28;20440;-80
2021/08/13 05:00:32;;;;;;;8.37;7.57;;;28.30;53.20;;;;;;5087372;28;20464;-78
2021/08/13 05:03:04;;;;;;;7.33;6.63;;;28.30;53.40;;;;;;5085926;28;20454;-79
2021/08/13 05:05:32;;;;;;;7.93;7.23;;;28.30;53.40;;;;;;5085764;28;20470;-79
2021/08/13 05:08:00;;;;;;;9.00;6.80;;;28.30;53.40;;;;;;5085018;28;20439;-80
2021/08/13 05:10:28;;;;;;;7.77;6.67;;;28.30;53.20;;;;;;5084947;28;20437;-78
2021/08/13 05:12:56;;;;;;;7.40;6.70;;;28.30;53.20;;;;;;5085124;28;20532;-79
2021/08/13 05:15:25;;;;;;;7.80;7.20;;;28.40;53.20;;;;;;5085154;28;20468;-79
2021/08/13 05:17:53;;;;;;;8.20;7.40;;;28.30;53.20;;;;;;5082519;28;20407;-79
2021/08/13 05:20:24;;;;;;;7.63;7.00;;;28.40;53.10;;;;;;5067736;28;20442;-79
2021/08/13 05:22:51;;;;;;;8.23;7.43;;;28.40;53.20;;;;;;5064341;28;20792;-78
2021/08/13 05:25:20;;;;;;;6.73;6.13;;;28.30;53.30;;;;;;5064764;28;20456;-79
2021/08/13 05:27:48;;;;;;;8.40;7.60;;;28.40;53.10;;;;;;5064156;28;20520;-79
2021/08/13 05:30:16;;;;;;;8.20;7.50;;;28.30;53.10;;;;;;5064655;28;20458;-79
2021/08/13 05:32:46;;;;;;;7.93;7.17;;;28.30;53.20;;;;;;5064576;28;21027;-79
2021/08/13 05:35:14;;;;;;;7.77;7.13;;;28.30;53.10;;;;;;5064934;28;20509;-78
2021/08/13 05:37:42;;;;;;;9.87;7.27;;;28.40;53.20;;;;;;5064092;28;20536;-78
2021/08/13 05:40:11;;;;;;;8.20;6.80;;;28.40;53.10;;;;;;5064060;28;20544;-81
2021/08/13 05:42:39;;;;;;;7.67;7.07;;;28.30;53.00;;;;;;5065320;28;20483;-80
2021/08/13 05:45:08;;;;;;;8.23;7.40;;;28.30;53.20;;;;;;5084352;28;20456;-80
2021/08/13 05:47:38;;;;;;;8.60;7.80;;;28.30;53.10;;;;;;5082210;28;20695;-79
2021/08/13 05:50:09;;;;;;;8.10;7.30;;;28.30;53.10;;;;;;5065969;28;20487;-81
2021/08/13 05:52:37;;;;;;;8.13;7.43;;;28.30;53.30;;;;;;5063826;28;20404;-79
2021/08/13 05:55:06;;;;;;;6.97;6.37;;;28.30;53.30;;;;;;5073748;28;20471;-80
2021/08/13 05:57:33;;;;;;;7.67;6.97;;;28.30;53.20;;;;;;5083978;28;20513;-78
2021/08/13 06:00:01;;;;;;;8.33;7.53;;;28.30;53.10;;;;;;5084417;28;20478;-80
2021/08/13 06:02:29;;;;;;;11.13;7.80;;;28.30;53.20;;;;;;5084273;28;20451;-78
2021/08/13 06:04:57;;;;;;;8.20;7.50;;;28.30;53.10;;;;;;5084584;28;20557;-78
2021/08/13 06:07:26;;;;;;;7.87;7.00;;;28.30;53.20;;;;;;5071965;28;20503;-80
2021/08/13 06:09:54;;;;;;;8.27;7.47;;;28.40;53.10;;;;;;5071063;28;20488;-81
2021/08/13 06:12:22;;;;;;;7.80;7.00;;;28.40;53.00;;;;;;5064168;28;20520;-78
2021/08/13 06:14:50;;;;;;;8.10;7.20;;;28.40;52.80;;;;;;5064335;28;20429;-78
2021/08/13 06:17:18;;;;;;;8.47;7.77;;;28.50;52.60;;;;;;5063822;28;20995;-77
2021/08/13 06:19:45;;;;;;;7.90;7.10;;;28.50;52.70;;;;;;5063898;28;20536;-80
2021/08/13 06:22:13;;;;;;;8.07;7.33;;;28.50;52.60;;;;;;5064272;28;20512;-78
2021/08/13 06:24:42;;;;;;;8.23;6.77;;;28.60;52.60;;;;;;5064061;28;20545;-77
2021/08/13 06:27:10;;;;;;;8.10;7.30;;;28.60;52.40;;;;;;5064978;28;20456;-77
2021/08/13 06:29:38;;;;;;;8.57;7.87;;;28.70;52.50;;;;;;5064652;28;20545;-77
2021/08/13 06:32:06;;;;;;;7.63;6.90;;;28.70;52.30;;;;;;5065355;28;20540;-77
2021/08/13 06:34:34;;;;;;;8.67;7.70;;;28.70;52.30;;;;;;5064379;28;20443;-79
2021/08/13 06:37:02;;;;;;;8.10;7.47;;;28.70;52.40;;;;;;5064799;28;20488;-77
2021/08/13 06:39:30;;;;;;;7.80;7.20;;;28.70;52.20;;;;;;5067889;28;20544;-78
2021/08/13 06:42:08;;;;;;;8.40;7.50;;;28.80;52.20;;;;;;5064727;28;20903;-77
2021/08/13 06:44:36;;;;;;;10.90;7.73;;;28.80;52.00;;;;;;5065213;28;20551;-77
2021/08/13 06:47:04;;;;;;;8.30;7.60;;;28.90;51.90;;;;;;5081467;28;20897;-78
2021/08/13 06:49:32;;;;;;;8.10;7.30;;;28.90;52.00;;;;;;5084648;28;20520;-78
2021/08/13 06:52:00;;;;;;;7.67;6.90;;;29.00;51.60;;;;;;5085045;28;20672;-76
2021/08/13 06:54:28;;;;;;;7.83;7.10;;;29.10;51.60;;;;;;5083056;28;20447;-77
2021/08/13 06:56:58;;;;;;;8.90;7.50;;;29.20;51.40;;;;;;5077649;28;20469;-78
2021/08/13 06:59:28;;;;;;;9.63;7.03;;;29.20;51.20;;;;;;5084614;28;20471;-78
2021/08/13 07:01:56;;;;;;;9.60;7.27;;;29.30;51.90;;;;;;5082886;28;20489;-80
2021/08/13 07:04:24;;;;;;;12.83;7.20;;;29.60;51.00;;;;;;5083962;28;20467;-80
2021/08/13 07:06:51;;;;;;;7.60;6.90;;;29.60;50.90;;;;;;5083217;28;20519;-80
2021/08/13 07:09:19;;;;;;;7.33;6.40;;;29.70;50.80;;;;;;5083673;28;20461;-78
2021/08/13 07:11:47;;;;;;;7.77;6.83;;;29.80;50.70;;;;;;5083471;28;20482;-78
2021/08/13 07:14:15;;;;;;;7.73;6.73;;;29.90;50.70;;;;;;5084082;28;20491;-78
2021/08/13 07:16:44;;;;;;;11.97;7.30;;;30.00;50.50;;;;;;5085530;28;20439;-77
2021/08/13 07:19:12;;;;;;;7.10;6.47;;;30.10;50.40;;;;;;5084257;28;20471;-79
2021/08/13 07:21:40;;;;;;;7.10;6.50;;;30.20;50.30;;;;;;5085572;28;20520;-78
2021/08/13 07:24:08;;;;;;;7.27;6.67;;;30.20;50.40;;;;;;5084921;28;20526;-77
2021/08/13 07:26:35;;;;;;;8.13;6.37;;;30.30;50.20;;;;;;5069055;28;20536;-77
2021/08/13 07:29:03;;;;;;;7.10;6.50;;;30.30;50.20;;;;;;5064218;28;20541;-77
2021/08/13 07:31:31;;;;;;;6.20;5.70;;;30.50;50.10;;;;;;5079390;28;20420;-78
2021/08/13 07:34:00;;;;;;;9.47;6.63;;;30.40;50.20;;;;;;5083999;28;20490;-77
2021/08/13 07:36:28;;;;;;;8.90;6.80;;;30.40;50.20;;;;;;5084643;28;20532;-78
2021/08/13 07:38:56;;;;;;;8.60;7.80;;;30.30;50.50;;;;;;5084633;28;20471;-76
2021/08/13 07:41:24;;;;;;;15.23;10.30;;;29.90;50.40;;;;;;5082703;28;20460;-79
2021/08/13 07:43:51;;;;;;;11.67;6.90;;;29.70;50.10;;;;;;5081936;28;20514;-78
2021/08/13 07:46:19;;;;;;;9.73;7.30;;;29.40;52.10;;;;;;5087564;28;20491;-79
2021/08/13 07:48:47;;;;;;;14.83;10.60;;;29.40;52.10;;;;;;5087680;28;20460;-79
2021/08/13 07:51:16;;;;;;;12.87;8.33;;;29.10;51.80;;;;;;5081683;28;20442;-77
2021/08/13 07:53:44;;;;;;;17.80;12.20;;;28.90;53.40;;;;;;5080862;28;20441;-77
2021/08/13 07:56:13;;;;;;;15.90;12.50;;;28.50;52.20;;;;;;5079162;28;20490;-77
2021/08/13 07:58:40;;;;;;;17.17;11.23;;;28.20;52.00;;;;;;5076391;28;20551;-77
2021/08/13 08:01:08;;;;;;;13.90;11.17;;;28.30;53.10;;;;;;5076167;28;20495;-77
2021/08/13 08:03:36;;;;;;;14.33;11.87;;;28.30;53.00;;;;;;5083385;28;20432;-76
2021/08/13 08:06:04;;;;;;;16.77;10.33;;;28.30;52.40;;;;;;5075102;28;20547;-77
2021/08/13 08:08:33;;;;;;;12.20;9.60;;;28.60;53.00;;;;;;5076040;28;20822;-78
2021/08/13 08:11:01;;;;;;;17.03;10.70;;;28.90;52.50;;;;;;5075836;28;20579;-78
2021/08/13 08:13:29;;;;;;;15.27;10.47;;;28.70;53.20;;;;;;5075901;28;20789;-78
2021/08/13 08:15:56;;;;;;;14.37;10.40;;;28.80;51.70;;;;;;5074763;28;20872;-78
2021/08/13 08:18:24;;;;;;;16.97;12.20;;;28.80;52.50;;;;;;5074323;28;20455;-77
2021/08/13 08:20:52;;;;;;;15.13;10.20;;;28.80;52.40;;;;;;5074737;28;20451;-78
2021/08/13 08:23:21;;;;;;;12.83;9.37;;;28.70;52.50;;;;;;5076902;28;20429;-78
2021/08/13 08:25:50;;;;;;;10.90;9.30;;;28.60;54.10;;;;;;5074043;28;20552;-78
2021/08/13 08:28:18;;;;;;;18.60;13.00;;;28.90;53.10;;;;;;5073987;28;20714;-78
2021/08/13 08:30:46;;;;;;;21.70;13.43;;;28.50;52.70;;;;;;5072102;28;20535;-78
2021/08/13 08:33:14;;;;;;;12.63;9.77;;;28.00;54.40;;;;;;5071690;28;20771;-78
2021/08/13 08:35:42;;;;;;;19.13;11.87;;;27.80;56.50;;;;;;5069547;28;20491;-78
2021/08/13 08:38:10;;;;;;;8.77;7.87;;;28.10;55.10;;;;;;5071727;28;20468;-78
2021/08/13 08:40:38;;;;;;;18.83;10.40;;;28.30;54.90;;;;;;5071070;28;20444;-78
2021/08/13 08:43:08;;;;;;;23.93;11.70;;;28.70;53.60;;;;;;5070097;28;20425;-78
2021/08/13 08:45:37;;;;;;;14.93;11.67;;;28.60;53.40;;;;;;5061008;28;20495;-78
2021/08/13 08:48:05;;;;;;;13.63;11.20;;;28.40;53.90;;;;;;5060745;28;20446;-77
2021/08/13 08:50:34;;;;;;;15.07;9.43;;;28.70;53.30;;;;;;5061144;28;20409;-77
2021/08/13 08:53:03;;;;;;;13.90;9.50;;;28.90;53.40;;;;;;5061046;28;20495;-78
2021/08/13 08:55:32;;;;;;;13.13;10.37;;;29.20;53.10;;;;;;5060850;28;20516;-78
2021/08/13 08:58:00;;;;;;;14.77;11.17;;;29.10;53.00;;;;;;5065309;28;20508;-77
2021/08/13 09:00:29;;;;;;;11.77;9.70;;;29.20;52.60;;;;;;5069611;28;20418;-78
2021/08/13 09:02:57;;;;;;;17.00;11.33;;;29.00;54.00;;;;;;5071100;28;20427;-78
2021/08/13 09:05:25;;;;;;;17.03;11.43;;;29.40;52.90;;;;;;5069864;28;20497;-78
2021/08/13 09:07:53;;;;;;;26.20;14.40;;;29.40;52.30;;;;;;5068693;28;20457;-77
2021/08/13 09:10:21;;;;;;;17.90;13.03;;;28.90;53.00;;;;;;5070976;28;20433;-78
2021/08/13 09:12:51;;;;;;;15.23;10.90;;;28.60;54.50;;;;;;5070091;28;20520;-79
2021/08/13 09:15:26;;;;;;;12.33;10.23;;;28.80;53.70;;;;;;5070920;28;20516;-78
2021/08/13 09:18:14;;;;;;;13.07;9.90;;;29.00;53.50;;;;;;5077660;28;20460;-78
2021/08/13 09:20:42;;;;;;;11.20;10.00;;;29.10;53.40;;;;;;5081884;28;20421;-78
2021/08/13 09:23:10;;;;;;;19.83;11.90;;;29.30;52.70;;;;;;5084121;28;20439;-77
2021/08/13 09:25:38;;;;;;;15.73;12.37;;;29.20;52.40;;;;;;5084640;28;20488;-78
2021/08/13 09:28:06;;;;;;;12.90;10.70;;;29.00;53.60;;;;;;5078327;28;20421;-78
2021/08/13 09:30:52;;;;;;;16.40;11.73;;;29.10;54.00;;;;;;5075589;28;20428;-78
2021/08/13 09:33:21;;;;;;;18.50;12.10;;;29.50;52.40;;;;;;5080136;28;20512;-78
2021/08/13 09:35:54;;;;;;;14.50;11.13;;;29.70;52.40;;;;;;5084099;28;20395;-78
2021/08/13 09:38:22;;;;;;;15.90;10.03;;;29.70;51.70;;;;;;5083820;28;20466;-78
2021/08/13 09:40:50;;;;;;;13.93;10.93;;;29.70;51.90;;;;;;5083912;28;20433;-78
2021/08/13 09:43:17;;;;;;;15.93;13.20;;;29.50;52.00;;;;;;5084260;28;20425;-78
2021/08/13 09:45:45;;;;;;;21.60;13.10;;;29.50;51.80;;;;;;5084197;28;20555;-77
2021/08/13 09:48:24;;;;;;;20.27;11.47;;;29.10;52.10;;;;;;5083787;28;20547;-78
2021/08/13 09:50:52;;;;;;;13.60;10.57;;;29.20;52.70;;;;;;5079407;28;20449;-78
2021/08/13 09:53:20;;;;;;;13.87;10.83;;;29.30;52.70;;;;;;5081973;28;20484;-78
2021/08/13 09:55:48;;;;;;;11.53;9.93;;;29.50;52.20;;;;;;5083168;28;20418;-78
2021/08/13 09:58:24;;;;;;;14.00;11.63;;;29.90;51.40;;;;;;5083617;28;20476;-78
2021/08/13 10:00:52;;;;;;;12.93;11.40;;;30.30;51.20;;;;;;5084120;28;20444;-78
2021/08/13 10:03:20;;;;;;;21.77;12.20;;;30.40;50.20;;;;;;5093919;28;20788;-77
2021/08/13 10:06:01;;;;;;;16.10;9.83;;;30.20;50.60;;;;;;5083726;28;20461;-77
2021/08/13 10:08:40;;;;;;;11.60;9.00;;;30.50;50.40;;;;;;5082772;28;20512;-78
2021/08/13 10:11:12;;;;;;;13.57;10.13;;;30.70;50.70;;;;;;5081344;28;20425;-78
2021/08/13 10:13:43;;;;;;;11.50;9.60;;;30.70;50.10;;;;;;5080239;28;20433;-77
2021/08/13 10:16:11;;;;;;;13.10;11.40;;;30.30;50.40;;;;;;5083149;28;20898;-77
2021/08/13 10:18:39;;;;;;;17.73;10.80;;;30.20;50.10;;;;;;5083332;28;20739;-78
2021/08/13 10:21:08;;;;;;;14.10;9.90;;;30.30;49.80;;;;;;5083349;28;20421;-78
2021/08/13 10:23:36;;;;;;;15.60;10.70;;;30.40;49.80;;;;;;5083702;28;20720;-77
2021/08/13 10:26:04;;;;;;;13.13;10.30;;;30.30;50.10;;;;;;5082998;28;20446;-78
2021/08/13 10:28:31;;;;;;;14.83;9.70;;;30.30;50.10;;;;;;5080294;28;20547;-78
2021/08/13 10:30:59;;;;;;;22.50;10.13;;;30.50;50.10;;;;;;5083406;28;20512;-77
2021/08/13 10:33:27;;;;;;;11.50;8.60;;;30.60;49.20;;;;;;5083175;28;20902;-77
2021/08/13 10:35:55;;;;;;;14.40;9.70;;;30.60;49.80;;;;;;5080731;28;20520;-76
2021/08/13 10:38:25;;;;;;;17.90;9.67;;;30.30;50.40;;;;;;5082940;28;20536;-78
2021/08/13 10:40:53;;;;;;;15.30;10.30;;;30.10;51.00;;;;;;5083407;28;20465;-77
2021/08/13 10:43:21;;;;;;;10.83;9.10;;;30.30;50.60;;;;;;5083440;28;20437;-78
2021/08/13 10:45:52;;;;;;;11.53;9.13;;;30.40;50.60;;;;;;5080045;28;20439;-77
2021/08/13 10:48:21;;;;;;;12.30;9.40;;;30.70;49.70;;;;;;5062760;28;20453;-78
2021/08/13 10:50:49;;;;;;;8.73;7.87;;;30.70;50.20;;;;;;5063225;28;20544;-78
2021/08/13 10:53:29;;;;;;;11.50;9.73;;;30.80;50.70;;;;;;5063107;28;20442;-77
2021/08/13 10:55:57;;;;;;;10.23;8.80;;;30.70;49.40;;;;;;5063243;28;20512;-78
2021/08/13 10:58:45;;;;;;;10.60;8.60;;;30.90;49.30;;;;;;5062510;28;20473;-77
2021/08/13 11:01:13;;;;;;;9.80;8.37;;;31.10;49.20;;;;;;5064621;28;20448;-78
2021/08/13 11:03:41;;;;;;;13.87;9.30;;;31.40;49.00;;;;;;5064181;28;20568;-78
2021/08/13 11:06:09;;;;;;;10.40;8.60;;;31.30;49.00;;;;;;5082860;28;20527;-77
2021/08/13 11:09:01;;;;;;;14.97;7.60;;;31.30;49.30;;;;;;5083268;28;20505;-77
2021/08/13 11:12:12;;;;;;;8.20;7.40;;;31.30;49.10;;;;;;5083754;28;20419;-78
2021/08/13 11:14:49;;;;;;;14.80;9.67;;;31.40;48.00;;;;;;5083836;28;20512;-77
2021/08/13 11:17:34;;;;;;;8.63;7.37;;;31.10;48.80;;;;;;5082920;28;20444;-78
2021/08/13 11:20:04;;;;;;;11.70;8.30;;;31.00;49.80;;;;;;5069593;28;20536;-79
2021/08/13 11:22:35;;;;;;;13.37;9.20;;;30.70;49.90;;;;;;5063707;28;20521;-78
2021/08/13 11:25:05;;;;;;;12.87;9.10;;;30.10;50.90;;;;;;5064647;28;20507;-78
2021/08/13 11:27:32;;;;;;;9.93;7.73;;;29.80;50.80;;;;;;5064382;28;20568;-77
2021/08/13 11:30:00;;;;;;;7.83;6.70;;;29.90;51.50;;;;;;5065242;28;20481;-79
2021/08/13 11:32:31;;;;;;;7.70;6.90;;;30.30;51.20;;;;;;5064570;28;20473;-76
2021/08/13 11:35:01;;;;;;;8.97;6.33;;;30.80;49.40;;;;;;5063118;28;20408;-78
2021/08/13 11:37:48;;;;;;;9.20;6.30;;;31.00;49.00;;;;;;5065681;28;20528;-77
2021/08/13 11:40:51;;;;;;;7.10;6.40;;;31.30;48.40;;;;;;5082884;28;20448;-78
2021/08/13 11:43:19;;;;;;;6.63;6.07;;;31.30;48.00;;;;;;5058820;28;20809;-77
2021/08/13 11:45:48;;;;;;;6.63;5.47;;;30.80;48.60;;;;;;5062888;28;20476;-75
2021/08/13 11:48:18;;;;;;;7.73;5.00;;;30.60;48.10;;;;;;5063686;28;20720;-77
2021/08/13 11:50:46;;;;;;;4.87;4.47;;;30.60;46.90;;;;;;5062216;28;20525;-77
2021/08/13 11:53:14;;;;;;;5.83;4.33;;;30.70;47.10;;;;;;5067353;28;20432;-77
2021/08/13 11:55:45;;;;;;;4.67;4.20;;;30.70;47.40;;;;;;5072800;28;20528;-77
2021/08/13 11:58:25;;;;;;;3.60;3.40;;;31.00;47.80;;;;;;5069484;28;20890;-77
2021/08/13 12:01:05;;;;;;;4.37;3.87;;;31.00;46.50;;;;;;5072067;28;20498;-78
2021/08/13 12:03:33;;;;;;;4.27;3.97;;;30.70;47.60;;;;;;5072262;28;20501;-77
2021/08/13 12:06:13;;;;;;;10.43;4.20;;;30.60;47.90;;;;;;5074004;28;20429;-75
2021/08/13 12:08:45;;;;;;;7.83;4.10;;;30.80;47.10;;;;;;5071095;28;20460;-75
2021/08/13 12:11:13;;;;;;;6.80;4.00;;;30.50;47.60;;;;;;5070932;28;20422;-77
2021/08/13 12:13:43;;;;;;;6.40;4.00;;;30.30;48.70;;;;;;5070686;28;20473;-78
2021/08/13 12:16:10;;;;;;;4.90;4.50;;;30.20;49.10;;;;;;5073899;28;20460;-75
2021/08/13 12:18:38;;;;;;;7.10;4.63;;;30.20;48.90;;;;;;5070710;28;20487;-75
2021/08/13 12:21:07;;;;;;;4.53;4.13;;;30.30;49.20;;;;;;5072764;28;20548;-78
2021/08/13 12:23:35;;;;;;;6.30;4.63;;;30.00;50.10;;;;;;5074665;28;20734;-78
2021/08/13 12:26:03;;;;;;;7.73;5.03;;;29.70;50.80;;;;;;5074768;28;20444;-77
2021/08/13 12:28:32;;;;;;;5.33;4.90;;;29.40;51.10;;;;;;5071441;28;20451;-79
2021/08/13 12:31:08;;;;;;;8.80;4.80;;;29.10;51.40;;;;;;5072316;28;20448;-76
2021/08/13 12:33:36;;;;;;;5.03;4.63;;;28.80;52.60;;;;;;5072423;28;20504;-77
2021/08/13 12:36:09;;;;;;;7.63;5.03;;;29.10;52.80;;;;;;5071967;28;20474;-76
2021/08/13 12:38:38;;;;;;;4.93;4.43;;;29.20;52.00;;;;;;5076392;28;20544;-76
2021/08/13 12:41:05;;;;;;;4.50;4.20;;;29.60;51.10;;;;;;5072468;28;20500;-75
2021/08/13 12:43:33;;;;;;;5.40;4.90;;;29.80;50.20;;;;;;5060981;28;20444;-78
2021/08/13 12:46:01;;;;;;;6.40;4.60;;;29.40;51.00;;;;;;5073250;28;20524;-75
2021/08/13 12:48:30;;;;;;;5.57;4.43;;;29.40;51.20;;;;;;5071377;28;20477;-75
2021/08/13 12:50:58;;;;;;;8.80;5.60;;;29.50;51.70;;;;;;5073227;28;20500;-75
2021/08/13 12:53:34;;;;;;;5.53;5.13;;;29.30;51.60;;;;;;5076592;28;20453;-76